Time;durP1;ratioP1;P1;durP2;ratioP2;P2;SDS_P1;SDS_P2;PMS_P1;PMS_P2;Temp;Humidity;BMP_temperature;BMP_pressure;BME280_temperature;BME280_humidity;BME280_pressure;Samples;Min_cycle;Max_cycle;Signal;HPM_P1;HPM_P2
2021/04/25 00:01:23;;;;;;;8.45;3.13;;;;;;;6.44;57.63;101233.19;5056674;28;20052;-74
2021/04/25 00:03:49;;;;;;;6.50;2.67;;;;;;;6.43;57.69;101225.25;5058526;28;20349;-74
2021/04/25 00:06:16;;;;;;;6.63;3.05;;;;;;;6.28;58.17;101227.41;5056065;28;20512;-74
2021/04/25 00:08:42;;;;;;;8.82;3.22;;;;;;;6.14;58.63;101208.34;5056706;28;20057;-75
2021/04/25 00:11:09;;;;;;;8.00;3.47;;;;;;;6.11;58.50;101211.94;5056115;28;20144;-74
2021/04/25 00:13:35;;;;;;;9.82;3.45;;;;;;;6.23;58.85;101239.91;5056254;28;20049;-75
2021/04/25 00:16:01;;;;;;;9.40;3.20;;;;;;;6.08;59.00;101217.28;5055532;28;20071;-74
2021/04/25 00:18:27;;;;;;;10.95;3.40;;;;;;;6.22;59.13;101227.56;5055654;28;20056;-75
2021/04/25 00:20:54;;;;;;;11.35;4.13;;;;;;;6.07;59.68;101226.16;5054232;28;20041;-74
2021/04/25 00:23:20;;;;;;;8.70;3.45;;;;;;;6.06;59.43;101217.31;5055496;28;20426;-75
2021/04/25 00:25:46;;;;;;;9.32;3.45;;;;;;;6.01;59.68;101224.50;5037877;28;20056;-74
2021/04/25 00:28:12;;;;;;;12.57;3.70;;;;;;;5.98;59.64;101229.88;5054632;28;20053;-73
2021/04/25 00:30:39;;;;;;;11.15;4.30;;;;;;;5.97;59.90;101228.13;5054551;28;20056;-74
2021/04/25 00:33:05;;;;;;;8.20;3.88;;;;;;;5.93;60.28;101223.81;5055248;28;20053;-75
2021/04/25 00:35:31;;;;;;;9.02;3.78;;;;;;;5.90;60.85;101213.28;5054197;28;20053;-75
2021/04/25 00:37:58;;;;;;;7.82;3.70;;;;;;;5.70;60.19;101198.75;5054221;28;20065;-76
2021/04/25 00:40:24;;;;;;;9.45;4.22;;;;;;;5.87;61.00;101218.69;5055030;28;20102;-75
2021/04/25 00:42:50;;;;;;;8.68;4.40;;;;;;;5.66;61.32;101218.28;5055429;28;20337;-75
2021/04/25 00:45:18;;;;;;;11.57;4.43;;;;;;;5.69;61.53;101218.19;5055345;28;20060;-75
2021/04/25 00:47:47;;;;;;;7.30;3.92;;;;;;;5.71;61.65;101219.03;5053540;28;20060;-75
2021/04/25 00:50:16;;;;;;;17.02;4.82;;;;;;;5.66;61.92;101218.28;5037818;28;20041;-75
2021/04/25 00:52:45;;;;;;;10.00;4.75;;;;;;;5.43;62.40;101196.72;5054357;28;20056;-74
2021/04/25 00:55:13;;;;;;;10.23;5.57;;;;;;;5.55;62.37;101227.34;5054057;28;20053;-74
2021/04/25 00:57:40;;;;;;;14.90;5.28;;;;;;;5.53;62.08;101213.28;5037488;28;20056;-74
2021/04/25 01:00:10;;;;;;;14.05;5.32;;;;;;;5.50;62.51;101208.03;5054916;28;20045;-74
2021/04/25 01:02:36;;;;;;;13.20;5.18;;;;;;;5.41;62.75;101211.75;5054865;28;20049;-74
2021/04/25 01:05:06;;;;;;;12.27;4.68;;;;;;;5.46;62.86;101214.31;5055165;28;20049;-75
2021/04/25 01:07:32;;;;;;;11.32;5.03;;;;;;;5.40;62.87;101207.34;5054895;28;20048;-74
2021/04/25 01:09:59;;;;;;;9.93;5.10;;;;;;;5.41;62.97;101205.59;5055228;28;20111;-74
2021/04/25 01:12:25;;;;;;;13.63;5.38;;;;;;;5.37;63.28;101211.84;5055035;28;20053;-75
2021/04/25 01:14:52;;;;;;;12.98;5.53;;;;;;;5.38;63.63;101208.28;5055008;28;20146;-76
2021/04/25 01:17:18;;;;;;;16.90;5.65;;;;;;;5.23;63.55;101194.50;5054939;28;20053;-75
2021/04/25 01:19:44;;;;;;;11.18;5.45;;;;;;;5.27;63.60;101214.72;5053992;28;20045;-75
2021/04/25 01:22:10;;;;;;;13.23;5.50;;;;;;;5.17;64.58;101210.50;5054945;28;20052;-75
2021/04/25 01:24:37;;;;;;;12.32;6.00;;;;;;;5.10;64.95;101204.50;5054929;28;20053;-75
2021/04/25 01:27:03;;;;;;;11.45;5.57;;;;;;;5.16;64.68;101203.47;5054902;28;20049;-73
2021/04/25 01:29:29;;;;;;;11.85;6.35;;;;;;;5.13;64.60;101208.84;5054942;28;20098;-74
2021/04/25 01:31:55;;;;;;;19.73;6.18;;;;;;;5.07;64.86;101208.97;5054675;28;20073;-74
2021/04/25 01:34:22;;;;;;;20.35;6.47;;;;;;;5.01;65.05;101194.13;5054747;28;20048;-74
2021/04/25 01:36:49;;;;;;;17.50;5.88;;;;;;;5.05;64.73;101202.88;5053238;28;20331;-73
2021/04/25 01:39:17;;;;;;;21.52;6.65;;;;;;;5.11;64.90;101229.16;5054522;28;20155;-74
2021/04/25 01:41:43;;;;;;;13.50;6.43;;;;;;;5.05;65.27;101230.19;5054670;28;20482;-73
2021/04/25 01:44:09;;;;;;;16.73;6.72;;;;;;;4.91;65.10;101203.13;5054906;28;20049;-74
2021/04/25 01:46:35;;;;;;;13.27;7.15;;;;;;;4.98;65.63;101223.28;5054558;28;20169;-74
2021/04/25 01:49:02;;;;;;;13.85;6.40;;;;;;;4.88;65.73;101220.81;5054592;28;20053;-74
2021/04/25 01:51:28;;;;;;;12.82;6.65;;;;;;;4.80;66.01;101206.00;5037218;28;20132;-75
2021/04/25 01:53:54;;;;;;;16.42;7.15;;;;;;;4.86;65.56;101232.34;5054431;28;20126;-75
2021/04/25 01:56:20;;;;;;;14.73;6.57;;;;;;;4.79;65.99;101220.13;5054380;28;20048;-75
2021/04/25 01:58:47;;;;;;;15.82;7.28;;;;;;;4.78;66.34;101237.75;5037505;28;20132;-75
2021/04/25 02:01:13;;;;;;;12.73;6.95;;;;;;;4.74;66.14;101234.31;5058105;28;20320;-75
2021/04/25 02:03:39;;;;;;;11.95;6.07;;;;;;;4.63;66.49;101209.84;5057861;28;20064;-75
2021/04/25 02:06:05;;;;;;;12.55;7.07;;;;;;;4.82;65.88;101218.28;5058261;28;20393;-74
2021/04/25 02:08:31;;;;;;;14.02;6.10;;;;;;;4.79;65.52;101215.69;5057868;28;20107;-75
2021/04/25 02:10:58;;;;;;;15.00;6.63;;;;;;;4.86;66.16;101227.03;5057312;28;20059;-75
2021/04/25 02:13:25;;;;;;;18.02;7.55;;;;;;;4.77;66.50;101228.09;5056966;28;20049;-74
2021/04/25 02:15:51;;;;;;;16.83;7.40;;;;;;;4.68;66.59;101215.06;5058377;28;20059;-74
2021/04/25 02:18:33;;;;;;;15.85;6.63;;;;;;;4.62;66.57;101230.13;5057143;28;20059;-74
2021/04/25 02:21:01;;;;;;;18.45;7.22;;;;;;;4.26;67.77;101207.88;5040335;28;20053;-75
2021/04/25 02:23:28;;;;;;;14.00;6.57;;;;;;;4.44;67.57;101235.75;5040936;28;20102;-75
2021/04/25 02:25:55;;;;;;;13.20;6.75;;;;;;;4.28;67.69;101211.38;5058315;28;20045;-73
2021/04/25 02:28:22;;;;;;;15.90;7.25;;;;;;;3.97;67.34;101162.56;5056923;28;20347;-74
2021/04/25 02:30:48;;;;;;;20.95;9.63;;;;;;;4.27;67.79;101233.41;5056847;28;20052;-74
2021/04/25 02:33:14;;;;;;;14.80;6.70;;;;;;;4.36;67.86;101238.53;5058069;28;20144;-75
2021/04/25 02:35:41;;;;;;;16.88;7.68;;;;;;;4.34;67.88;101229.75;5057623;28;20052;-75
2021/04/25 02:38:07;;;;;;;14.65;6.97;;;;;;;4.36;67.51;101230.59;5057710;28;20354;-74
2021/04/25 02:40:35;;;;;;;12.50;7.13;;;;;;;4.26;67.93;101234.31;5057475;28;20048;-74
2021/04/25 02:43:03;;;;;;;16.67;7.85;;;;;;;4.09;68.24;101211.72;5056485;28;20099;-75
2021/04/25 02:45:30;;;;;;;15.70;7.75;;;;;;;4.18;68.35;101234.44;5057910;28;20053;-74
2021/04/25 02:47:58;;;;;;;14.70;7.57;;;;;;;4.15;68.90;101230.06;5056452;28;20056;-74
2021/04/25 02:50:28;;;;;;;15.63;7.55;;;;;;;4.10;68.52;101221.38;5057363;28;20045;-74
2021/04/25 02:52:54;;;;;;;16.65;7.25;;;;;;;4.03;68.63;101230.31;5057209;28;20053;-74
2021/04/25 02:55:21;;;;;;;15.27;6.85;;;;;;;4.12;68.74;101239.81;5056391;28;20049;-74
2021/04/25 02:57:47;;;;;;;15.20;7.53;;;;;;;4.05;68.95;101239.06;5056988;28;20053;-74
2021/04/25 03:00:17;;;;;;;15.05;7.22;;;;;;;3.97;69.26;101241.81;5057094;28;20087;-74
2021/04/25 03:02:43;;;;;;;19.95;7.72;;;;;;;3.90;69.50;101235.78;5056060;28;20052;-74
2021/04/25 03:05:11;;;;;;;13.93;7.15;;;;;;;4.00;69.14;101241.78;5056932;28;20104;-74
2021/04/25 03:07:37;;;;;;;15.38;7.78;;;;;;;3.98;69.33;101242.69;5057185;28;20393;-74
2021/04/25 03:10:05;;;;;;;16.35;7.53;;;;;;;3.89;69.42;101239.31;5055686;28;20045;-74
2021/04/25 03:12:32;;;;;;;15.05;7.75;;;;;;;3.83;69.35;101228.84;5056691;28;20060;-74
2021/04/25 03:14:58;;;;;;;18.00;6.93;;;;;;;3.89;69.57;101236.69;5039445;28;20057;-74
2021/04/25 03:17:24;;;;;;;17.98;7.70;;;;;;;3.78;69.86;101230.69;5057056;28;20049;-74
2021/04/25 03:19:51;;;;;;;13.70;7.82;;;;;;;3.75;70.24;101228.06;5056717;28;20059;-73
2021/04/25 03:22:17;;;;;;;14.35;6.93;;;;;;;3.75;70.27;101236.88;5055781;28;20045;-73
2021/04/25 03:24:43;;;;;;;15.07;7.30;;;;;;;3.79;70.05;101238.59;5056830;28;20049;-74
2021/04/25 03:27:10;;;;;;;16.73;7.38;;;;;;;3.66;70.66;101237.88;5055728;28;20053;-73
2021/04/25 03:29:36;;;;;;;13.88;7.32;;;;;;;3.45;71.16;101228.53;5055309;28;20057;-73
2021/04/25 03:32:02;;;;;;;19.27;8.23;;;;;;;3.57;70.73;101231.88;5056782;28;20053;-73
2021/04/25 03:34:28;;;;;;;16.88;8.55;;;;;;;3.57;70.75;101242.41;5056336;28;20060;-73
2021/04/25 03:36:55;;;;;;;17.45;8.05;;;;;;;3.63;70.03;101243.22;5056270;28;20060;-73
2021/04/25 03:39:21;;;;;;;18.40;7.70;;;;;;;3.58;70.61;101244.16;5056442;28;20351;-73
2021/04/25 03:41:48;;;;;;;16.10;7.95;;;;;;;3.65;70.47;101235.28;5055336;28;20442;-73
2021/04/25 03:44:14;;;;;;;13.88;8.02;;;;;;;3.53;70.93;101242.47;5056405;28;20111;-74
2021/04/25 03:46:42;;;;;;;14.82;7.82;;;;;;;3.40;71.14;101231.19;5056382;28;20052;-74
2021/04/25 03:49:09;;;;;;;15.75;7.90;;;;;;;3.52;70.87;101242.50;5056637;28;20049;-74
2021/04/25 03:51:35;;;;;;;15.80;8.32;;;;;;;3.41;70.81;101237.38;5056401;28;20060;-74
2021/04/25 03:54:02;;;;;;;16.35;7.18;;;;;;;3.40;71.35;101241.75;5056250;28;20106;-74
2021/04/25 03:56:28;;;;;;;15.40;7.97;;;;;;;3.49;70.64;101240.75;5038574;28;20049;-74
2021/04/25 03:58:54;;;;;;;15.23;8.55;;;;;;;3.39;71.01;101234.75;5055219;28;20053;-74
2021/04/25 04:01:20;;;;;;;14.45;7.55;;;;;;;3.33;71.40;101234.81;5056263;28;20041;-73
2021/04/25 04:03:46;;;;;;;18.70;9.35;;;;;;;3.23;71.46;101235.84;5055155;28;20065;-73
2021/04/25 04:06:13;;;;;;;16.05;7.82;;;;;;;3.23;71.72;101236.72;5056215;28;20091;-73
2021/04/25 04:08:39;;;;;;;16.13;8.75;;;;;;;3.15;71.85;101241.22;5054734;28;20118;-74
2021/04/25 04:11:06;;;;;;;21.35;8.48;;;;;;;3.12;72.59;101246.53;5055902;28;20136;-73
2021/04/25 04:13:32;;;;;;;17.30;8.60;;;;;;;3.17;72.02;101252.66;5056032;28;20057;-73
2021/04/25 04:15:58;;;;;;;14.23;7.22;;;;;;;3.12;72.21;101247.41;5057062;28;20048;-74
2021/04/25 04:18:24;;;;;;;20.65;9.02;;;;;;;3.04;71.90;101238.72;5057113;28;20350;-73
2021/04/25 04:20:50;;;;;;;16.27;7.43;;;;;;;3.09;71.91;101236.91;5057024;28;20060;-73
2021/04/25 04:23:17;;;;;;;20.00;8.10;;;;;;;3.10;72.16;101251.84;5055790;28;20057;-73
2021/04/25 04:25:43;;;;;;;15.70;8.32;;;;;;;3.14;72.28;101249.19;5055667;28;20118;-74
2021/04/25 04:28:09;;;;;;;17.30;7.88;;;;;;;3.08;72.42;101250.09;5056947;28;20056;-74
2021/04/25 04:30:35;;;;;;;13.90;7.28;;;;;;;3.12;72.17;101257.09;5056794;28;20052;-73
2021/04/25 04:33:01;;;;;;;15.93;7.90;;;;;;;3.10;72.04;101240.41;5056380;28;20489;-76
2021/04/25 04:35:28;;;;;;;17.25;8.40;;;;;;;2.93;72.76;101240.59;5055197;28;20060;-74
2021/04/25 04:37:54;;;;;;;20.45;8.82;;;;;;;2.95;72.89;101250.25;5054131;28;20052;-75
2021/04/25 04:40:21;;;;;;;18.35;9.00;;;;;;;2.88;73.29;101238.03;5055356;28;20053;-75
2021/04/25 04:42:47;;;;;;;15.07;8.23;;;;;;;3.05;72.80;101240.47;5071042;28;20045;-73
2021/04/25 04:45:15;;;;;;;18.17;8.23;;;;;;;3.01;72.92;101254.59;5055335;28;20057;-72
2021/04/25 04:47:43;;;;;;;14.65;8.18;;;;;;;2.97;72.63;101247.59;5055628;28;20057;-74
2021/04/25 04:50:10;;;;;;;12.82;7.97;;;;;;;2.78;73.33;101221.44;5037713;28;20132;-74
2021/04/25 04:52:36;;;;;;;15.73;7.75;;;;;;;3.02;73.14;101255.44;5055195;28;20056;-74
2021/04/25 04:55:03;;;;;;;17.90;8.07;;;;;;;2.99;73.14;101257.25;5053943;28;20048;-74
2021/04/25 04:57:29;;;;;;;14.40;7.25;;;;;;;2.99;73.34;101259.00;5054553;28;20053;-73
2021/04/25 04:59:56;;;;;;;16.98;8.27;;;;;;;3.08;73.03;101256.25;5053950;28;20053;-74
2021/04/25 05:02:22;;;;;;;16.25;8.23;;;;;;;3.12;73.00;101257.09;5055485;28;20056;-74
2021/04/25 05:04:49;;;;;;;19.63;7.90;;;;;;;3.25;72.59;101258.69;5055677;28;20427;-74
2021/04/25 05:07:15;;;;;;;18.67;8.35;;;;;;;3.30;72.49;101263.91;5075271;28;20052;-74
2021/04/25 05:09:41;;;;;;;21.17;10.25;;;;;;;3.34;72.50;101256.81;5075084;28;20056;-74
2021/04/25 05:12:07;;;;;;;19.35;8.70;;;;;;;3.47;72.15;101260.16;5075203;28;20053;-74
2021/04/25 05:14:34;;;;;;;19.25;9.30;;;;;;;3.46;71.76;101268.97;5074875;28;20048;-75
2021/04/25 05:17:00;;;;;;;22.02;8.88;;;;;;;3.43;72.10;101261.09;5075018;28;20067;-74
2021/04/25 05:19:26;;;;;;;18.17;8.40;;;;;;;3.57;71.86;101275.00;5073567;28;20429;-74
2021/04/25 05:21:52;;;;;;;16.63;8.43;;;;;;;3.62;71.40;101277.56;5074699;28;20081;-73
2021/04/25 05:24:18;;;;;;;17.40;7.95;;;;;;;3.70;71.39;101280.09;5074705;28;20106;-73
2021/04/25 05:26:46;;;;;;;20.60;8.48;;;;;;;3.78;71.58;101278.22;5073564;28;20053;-74
2021/04/25 05:29:12;;;;;;;17.15;8.73;;;;;;;3.79;71.18;101285.22;5075024;28;20182;-74
2021/04/25 05:31:38;;;;;;;19.48;8.70;;;;;;;3.83;71.12;101268.47;5074985;28;20392;-74
2021/04/25 05:34:05;;;;;;;21.80;9.23;;;;;;;3.89;71.40;101278.94;5076248;28;20049;-74
2021/04/25 05:36:31;;;;;;;16.10;8.80;;;;;;;3.92;71.18;101276.22;5078659;28;20065;-74
2021/04/25 05:38:57;;;;;;;18.83;8.95;;;;;;;4.14;71.33;101280.31;5077194;28;20067;-74
2021/04/25 05:41:23;;;;;;;19.77;9.55;;;;;;;4.19;70.72;101289.91;5078235;28;20475;-74
2021/04/25 05:43:50;;;;;;;16.00;9.57;;;;;;;4.24;69.94;101296.91;5078461;28;20045;-74
2021/04/25 05:46:17;;;;;;;21.27;10.27;;;;;;;4.24;70.14;101289.81;5077331;28;20062;-74
2021/04/25 05:48:45;;;;;;;17.92;9.63;;;;;;;4.45;69.87;101295.66;5077475;28;20052;-73
2021/04/25 05:51:12;;;;;;;19.10;9.75;;;;;;;4.49;69.72;101286.78;5078325;28;20105;-74
2021/04/25 05:53:38;;;;;;;15.45;9.15;;;;;;;4.46;69.61;101271.84;5077595;28;20074;-74
2021/04/25 05:56:04;;;;;;;19.55;9.68;;;;;;;4.53;69.30;101277.03;5078277;28;20053;-74
2021/04/25 05:58:31;;;;;;;15.85;9.63;;;;;;;4.63;69.08;101286.53;5078280;28;20052;-74
2021/04/25 06:00:57;;;;;;;24.27;10.38;;;;;;;4.65;69.66;101290.03;5077078;28;20178;-74
2021/04/25 06:03:23;;;;;;;22.80;9.23;;;;;;;4.80;69.07;101293.28;5078189;28;20392;-74
2021/04/25 06:05:49;;;;;;;22.50;10.07;;;;;;;4.69;68.69;101278.47;5069042;28;20052;-74
2021/04/25 06:08:15;;;;;;;18.10;9.30;;;;;;;4.84;68.52;101289.66;5058039;28;20430;-74
2021/04/25 06:10:41;;;;;;;24.85;9.88;;;;;;;4.91;69.11;101301.03;5057917;28;20411;-74
2021/04/25 06:13:07;;;;;;;20.85;10.13;;;;;;;4.85;69.05;101291.44;5057026;28;20053;-74
2021/04/25 06:15:34;;;;;;;18.05;9.13;;;;;;;4.88;67.81;101305.47;5056946;28;20068;-74
2021/04/25 06:18:03;;;;;;;23.85;11.07;;;;;;;4.91;68.67;101303.66;5056702;28;20049;-74
2021/04/25 06:20:30;;;;;;;19.58;9.93;;;;;;;4.88;68.95;101309.88;5057682;28;20399;-74
2021/04/25 06:22:58;;;;;;;22.13;10.10;;;;;;;5.06;68.19;101310.44;5057915;28;20088;-74
2021/04/25 06:25:24;;;;;;;19.08;9.45;;;;;;;5.02;67.75;101302.56;5057671;28;20148;-74
2021/04/25 06:27:50;;;;;;;20.85;10.10;;;;;;;5.07;68.20;101307.75;5056521;28;20319;-73
2021/04/25 06:30:18;;;;;;;19.73;9.45;;;;;;;5.08;67.75;101306.88;5058146;28;20063;-75
2021/04/25 06:32:46;;;;;;;25.02;9.60;;;;;;;5.08;67.96;101313.94;5073206;28;20055;-78
2021/04/25 06:35:14;;;;;;;19.35;9.65;;;;;;;5.21;67.56;101312.78;5077493;28;20114;-77
2021/04/25 06:37:44;;;;;;;19.15;9.23;;;;;;;5.09;67.74;101289.19;5075701;28;20053;-76
2021/04/25 06:40:11;;;;;;;19.13;10.35;;;;;;;5.25;68.16;101316.25;5062797;28;20115;-76
2021/04/25 06:42:41;;;;;;;22.35;10.48;;;;;;;5.33;67.56;101313.44;5065126;28;20342;-75
2021/04/25 06:45:10;;;;;;;22.60;10.00;;;;;;;5.36;67.58;101310.72;5067128;28;20048;-77
2021/04/25 06:47:36;;;;;;;20.58;10.15;;;;;;;5.42;67.15;101310.59;5068571;28;20049;-75
2021/04/25 06:50:09;;;;;;;21.63;10.30;;;;;;;5.44;66.98;101303.47;5074179;28;20141;-74
2021/04/25 06:52:40;;;;;;;19.23;8.82;;;;;;;5.46;66.00;101309.63;5077095;28;20465;-77
2021/04/25 06:55:08;;;;;;;16.40;9.35;;;;;;;5.57;66.54;101293.50;5058373;28;20057;-79
2021/04/25 06:57:34;;;;;;;17.75;9.55;;;;;;;5.63;65.86;101297.78;5067469;28;20131;-76
2021/04/25 07:00:02;;;;;;;18.58;9.52;;;;;;;5.75;65.41;101296.66;5066370;28;20041;-76
2021/04/25 07:02:28;;;;;;;19.77;8.52;;;;;;;5.64;63.54;101292.47;5068445;28;20177;-77
2021/04/25 07:04:55;;;;;;;18.58;8.18;;;;;;;5.80;62.84;101302.72;5067945;28;20075;-73
2021/04/25 07:07:21;;;;;;;19.95;7.93;;;;;;;5.69;62.51;101292.38;5062871;28;20130;-75
2021/04/25 07:09:47;;;;;;;13.80;7.53;;;;;;;5.84;62.02;101310.56;5066849;28;20056;-76
2021/04/25 07:12:14;;;;;;;18.40;8.20;;;;;;;5.94;61.85;101318.31;5062698;28;20041;-77
2021/04/25 07:14:40;;;;;;;16.55;7.25;;;;;;;5.88;60.48;101311.34;5060918;28;20058;-73
2021/04/25 07:17:06;;;;;;;15.98;6.70;;;;;;;5.96;58.80;101313.84;5070318;28;20110;-76
2021/04/25 07:19:32;;;;;;;24.38;8.90;;;;;;;6.08;58.14;101310.94;5063514;28;20047;-75
2021/04/25 07:21:59;;;;;;;16.42;7.72;;;;;;;5.89;58.79;101313.09;5056513;28;20059;-74
2021/04/25 07:24:25;;;;;;;13.20;7.20;;;;;;;5.82;58.60;101307.06;5064363;28;20041;-76
2021/04/25 07:26:53;;;;;;;17.73;7.38;;;;;;;6.14;57.83;101327.63;5057523;28;20053;-73
2021/04/25 07:29:20;;;;;;;14.82;7.78;;;;;;;6.19;56.87;101312.44;5065885;28;20071;-75
2021/04/25 07:31:48;;;;;;;15.13;7.55;;;;;;;6.19;57.50;101317.75;5061234;28;20052;-77
2021/04/25 07:34:15;;;;;;;16.08;8.07;;;;;;;6.18;56.91;101314.25;5063025;28;20045;-78
2021/04/25 07:36:41;;;;;;;13.63;7.28;;;;;;;6.37;56.52;101322.63;5064698;28;20053;-75
2021/04/25 07:39:37;;;;;;;16.30;7.40;;;;;;;6.16;56.64;101318.69;5065276;28;20056;-78
2021/04/25 07:42:10;;;;;;;12.55;7.05;;;;;;;6.43;56.73;101320.72;5078093;28;20057;-80
2021/04/25 07:44:55;;;;;;;15.63;6.88;;;;;;;6.62;55.90;101300.78;5042325;28;20059;-76
2021/04/25 07:47:22;;;;;;;10.25;6.35;;;;;;;6.76;54.92;101318.13;5070001;28;20071;-75
2021/04/25 07:49:49;;;;;;;14.50;6.82;;;;;;;6.91;54.83;101325.66;5056142;28;20055;-75
2021/04/25 07:52:15;;;;;;;15.93;6.88;;;;;;;7.00;54.79;101326.31;5057094;28;20094;-75
2021/04/25 07:54:41;;;;;;;11.65;6.65;;;;;;;7.05;55.09;101321.75;5065559;28;20049;-74
2021/04/25 07:57:07;;;;;;;14.90;7.25;;;;;;;6.99;54.47;101330.78;5058920;28;20102;-75
2021/04/25 07:59:33;;;;;;;15.75;7.43;;;;;;;6.91;54.22;101336.28;5068493;28;20052;-74
2021/04/25 08:02:00;;;;;;;11.70;7.03;;;;;;;6.79;54.81;101324.22;5064542;28;20388;-77
2021/04/25 08:04:27;;;;;;;14.93;8.43;;;;;;;6.82;54.24;101330.34;5064917;28;20080;-76
2021/04/25 08:06:54;;;;;;;21.15;8.18;;;;;;;6.92;54.39;101329.19;5065221;28;20071;-76
2021/04/25 08:09:20;;;;;;;16.70;10.55;;;;;;;6.96;54.56;101330.00;5064565;28;20097;-75
2021/04/25 08:11:47;;;;;;;18.80;11.60;;;;;;;7.07;54.46;101322.56;5067346;28;20045;-79
2021/04/25 08:14:13;;;;;;;13.98;9.85;;;;;;;7.18;54.49;101314.31;5065291;28;20045;-76
2021/04/25 08:16:39;;;;;;;15.43;9.40;;;;;;;7.41;53.69;101318.97;5064908;28;20110;-77
2021/04/25 08:19:05;;;;;;;17.00;10.15;;;;;;;7.57;52.83;101326.50;5065768;28;20051;-84
2021/04/25 08:21:35;;;;;;;15.38;11.10;;;;;;;7.59;52.79;101329.97;5066859;28;20048;-77
2021/04/25 08:24:05;;;;;;;17.52;11.68;;;;;;;7.45;53.04;101323.28;5064081;28;20072;-78
2021/04/25 08:26:31;;;;;;;21.95;13.80;;;;;;;7.36;52.96;101328.00;5068672;28;20053;-83
2021/04/25 08:28:58;;;;;;;22.63;14.18;;;;;;;7.54;53.03;101326.59;5066232;28;20072;-78
2021/04/25 08:31:25;;;;;;;25.15;13.70;;;;;;;7.57;53.03;101313.22;5056744;28;20084;-79
2021/04/25 08:33:51;;;;;;;21.70;14.45;;;;;;;7.75;53.11;101322.41;5056138;28;20389;-82
2021/04/25 08:36:18;;;;;;;20.10;13.38;;;;;;;7.53;51.82;101315.09;5060696;28;20049;-75
2021/04/25 08:38:46;;;;;;;18.58;14.88;;;;;;;7.55;53.21;101328.31;5069925;28;20057;-77
2021/04/25 08:41:17;;;;;;;17.33;12.10;;;;;;;7.69;51.80;101310.16;5064917;28;20050;-83
2021/04/25 08:43:44;;;;;;;18.88;12.57;;;;;;;7.88;52.00;101313.16;5059863;28;20127;-78
2021/04/25 08:46:14;;;;;;;17.67;12.57;;;;;;;8.15;52.16;101317.63;5062960;28;20051;-84
2021/04/25 08:48:41;;;;;;;22.83;12.17;;;;;;;8.42;52.09;101321.19;5066394;28;20049;-77
2021/04/25 08:51:10;;;;;;;18.42;10.90;;;;;;;8.41;51.63;101313.25;5061678;28;20098;-79
2021/04/25 08:53:39;;;;;;;15.88;9.63;;;;;;;8.10;50.87;101306.25;5063367;28;20601;-80
2021/04/25 08:56:05;;;;;;;15.65;8.50;;;;;;;8.17;51.60;101321.09;5062868;28;20056;-80
2021/04/25 08:58:33;;;;;;;18.13;9.00;;;;;;;8.37;51.04;101322.25;5063870;28;20110;-80
2021/04/25 09:01:01;;;;;;;14.30;9.90;;;;;;;7.93;50.80;101310.34;5061267;28;20128;-79
2021/04/25 09:03:27;;;;;;;17.13;10.43;;;;;;;7.96;51.88;101323.53;5059343;28;20071;-79
2021/04/25 09:10:25;;;;;;;13.68;9.05;;;;;;;7.42;52.96;101322.50;5058576;28;20040;-80
2021/04/25 09:13:20;;;;;;;18.05;12.32;;;;;;;7.53;52.50;101324.84;5053702;28;20115;-79
2021/04/25 09:15:47;;;;;;;21.08;13.75;;;;;;;7.45;53.09;101312.66;5067350;28;20064;-77
2021/04/25 09:18:14;;;;;;;17.10;12.35;;;;;;;7.49;52.56;101318.75;5066421;28;20432;-77
2021/04/25 09:20:40;;;;;;;21.30;13.20;;;;;;;7.50;52.31;101320.50;5061753;28;20177;-79
2021/04/25 09:23:10;;;;;;;19.30;14.02;;;;;;;7.28;52.43;101322.88;5059085;28;20060;-78
2021/04/25 09:25:38;;;;;;;23.00;15.40;;;;;;;7.38;53.20;101311.09;5057910;28;20477;-80
2021/04/25 09:28:18;;;;;;;23.42;17.15;;;;;;;7.46;52.71;101321.47;5055756;28;20060;-75
2021/04/25 09:31:06;;;;;;;27.50;17.23;;;;;;;7.42;53.39;101320.69;5066383;28;20048;-71
2021/04/25 09:33:55;;;;;;;26.13;17.70;;;;;;;7.57;53.64;101305.25;5055307;28;20045;-73
2021/04/25 09:36:24;;;;;;;26.85;16.95;;;;;;;7.71;51.93;101305.69;5054016;28;20045;-73
2021/04/25 09:38:51;;;;;;;29.95;18.70;;;;;;;7.99;51.44;101303.94;5054026;28;20049;-73
2021/04/25 09:41:31;;;;;;;24.70;17.88;;;;;;;7.95;52.07;101305.84;5054585;28;20049;-74
2021/04/25 09:43:58;;;;;;;23.70;16.08;;;;;;;8.26;50.93;101317.28;5060719;28;20049;-73
2021/04/25 09:46:45;;;;;;;20.45;14.98;;;;;;;8.34;51.23;101309.91;5054240;28;20064;-74
2021/04/25 09:49:11;;;;;;;19.15;14.30;;;;;;;8.75;50.66;101312.13;5054590;28;20454;-74
2021/04/25 09:51:42;;;;;;;19.80;14.45;;;;;;;8.78;50.57;101303.19;5066223;28;20052;-75
2021/04/25 09:54:08;;;;;;;22.35;15.02;;;;;;;9.00;50.68;101308.63;5073206;28;20048;-73
2021/04/25 09:56:39;;;;;;;22.00;14.77;;;;;;;9.12;50.13;101303.75;5062731;28;20461;-72
2021/04/25 09:59:09;;;;;;;20.75;15.02;;;;;;;9.28;49.05;101296.06;5054400;28;20044;-75
2021/04/25 10:01:40;;;;;;;23.52;17.27;;;;;;;9.57;49.21;101302.94;5061217;28;20131;-74
2021/04/25 10:04:32;;;;;;;30.92;18.88;;;;;;;9.52;49.44;101302.25;5055622;28;20116;-74
2021/04/25 10:06:59;;;;;;;21.05;15.85;;;;;;;9.40;48.37;101273.41;5055543;28;20071;-73
2021/04/25 10:09:28;;;;;;;22.30;15.93;;;;;;;9.78;48.40;101295.03;5052884;28;20052;-78
2021/04/25 10:11:57;;;;;;;20.17;14.18;;;;;;;9.70;48.66;101286.50;5052381;28;20068;-77
2021/04/25 10:14:27;;;;;;;24.77;12.15;;;;;;;9.60;48.59;101283.31;5036128;28;20049;-81
2021/04/25 10:16:54;;;;;;;18.98;14.90;;;;;;;9.35;47.82;101273.59;5057272;28;20049;-75
2021/04/25 10:19:21;;;;;;;23.40;14.68;;;;;;;9.35;47.97;101279.78;5059282;28;20443;-75
2021/04/25 10:21:48;;;;;;;19.27;14.90;;;;;;;9.49;47.56;101278.41;5062948;28;20045;-75
2021/04/25 10:24:23;;;;;;;19.77;14.30;;;;;;;9.56;48.40;101276.34;5061471;28;20102;-75
2021/04/25 10:27:15;;;;;;;21.02;15.77;;;;;;;9.69;48.98;101287.44;5066846;28;20331;-81
2021/04/25 10:29:57;;;;;;;19.58;13.25;;;;;;;9.88;47.70;101277.78;5066961;28;20106;-75
2021/04/25 10:32:24;;;;;;;21.77;11.65;;;;;;;10.04;47.39;101277.13;5066796;28;20052;-78
2021/04/25 10:35:32;;;;;;;16.92;10.45;;;;;;;9.98;47.76;101278.22;5060803;28;20052;-77
2021/04/25 10:37:59;;;;;;;16.17;9.95;;;;;;;10.01;48.25;101266.56;5077040;28;20434;-77
2021/04/25 10:40:32;;;;;;;14.57;8.43;;;;;;;9.97;48.33;101275.66;5076620;28;20114;-78
2021/04/25 10:43:10;;;;;;;14.55;9.93;;;;;;;10.07;48.23;101268.16;5057003;28;20049;-79
2021/04/25 10:46:00;;;;;;;18.55;10.85;;;;;;;9.69;48.99;101271.44;5054527;28;20140;-79
2021/04/25 10:48:30;;;;;;;17.50;10.85;;;;;;;9.58;48.32;101259.38;5054042;28;20052;-79
2021/04/25 10:51:18;;;;;;;17.53;10.63;;;;;;;9.40;48.66;101257.41;5055901;28;20132;-78
2021/04/25 10:53:46;;;;;;;15.93;10.90;;;;;;;9.27;48.25;101244.59;5074193;28;20296;-79
2021/04/25 10:56:15;;;;;;;21.90;12.00;;;;;;;9.53;48.83;101258.69;5056750;28;20103;-79
2021/04/25 10:58:44;;;;;;;24.65;13.95;;;;;;;9.81;48.01;101262.91;5058101;28;20371;-79
2021/04/25 11:01:35;;;;;;;26.98;15.60;;;;;;;10.00;47.04;101268.41;5057782;28;20338;-79
2021/04/25 11:04:02;;;;;;;23.02;15.30;;;;;;;9.67;46.87;101246.59;5060083;28;20446;-79
2021/04/25 11:06:29;;;;;;;26.70;16.25;;;;;;;10.12;46.91;101261.69;5076239;28;20105;-76
2021/04/25 11:08:56;;;;;;;26.02;15.95;;;;;;;10.36;46.50;101245.59;5080826;28;20049;-81
2021/04/25 11:11:35;;;;;;;18.50;14.18;;;;;;;10.76;45.22;101258.13;5081327;28;20127;-79
2021/04/25 11:14:03;;;;;;;26.95;13.77;;;;;;;10.56;44.59;101252.75;5080361;28;20052;-80
2021/04/25 11:16:34;;;;;;;21.08;13.10;;;;;;;10.84;44.47;101242.66;5079582;28;20127;-78
2021/04/25 11:19:12;;;;;;;18.42;12.73;;;;;;;11.06;43.13;101249.72;5079412;28;20048;-78
2021/04/25 11:21:43;;;;;;;16.98;10.95;;;;;;;11.23;42.43;101243.59;5078245;28;20044;-81
2021/04/25 11:24:09;;;;;;;21.52;11.38;;;;;;;11.13;42.26;101246.66;5079827;28;20049;-78
2021/04/25 11:26:38;;;;;;;17.90;11.95;;;;;;;11.13;41.38;101249.34;5077594;28;20429;-78
2021/04/25 11:29:13;;;;;;;16.38;10.20;;;;;;;11.27;42.51;101238.03;5079264;28;20131;-81
2021/04/25 11:34:34;;;;;;;13.25;9.52;;;;;;;11.25;42.34;101239.03;5078733;28;20055;-79